createdAt,value
2019-04-13T00:00:30.025Z,10.88
2019-04-13T00:03:00.727Z,11.55
2019-04-13T00:05:53.247Z,10.68
2019-04-13T00:08:25.819Z,11.10
2019-04-13T00:11:18.077Z,11.80
2019-04-13T00:13:48.562Z,11.15
2019-04-13T00:16:18.951Z,11.43
2019-04-13T00:18:50.279Z,11.57
2019-04-13T00:21:20.621Z,11.73
2019-04-13T00:23:51.119Z,12.47
2019-04-13T00:26:21.846Z,10.53
2019-04-13T00:28:52.287Z,12.47
2019-04-13T00:31:22.738Z,11.63
2019-04-13T00:33:54.198Z,11.40
2019-04-13T00:36:25.539Z,12.80
2019-04-13T00:38:58.019Z,10.85
2019-04-13T00:41:29.434Z,11.33
2019-04-13T00:43:59.856Z,11.05
2019-04-13T00:46:30.311Z,11.83
2019-04-13T00:49:00.767Z,13.18
2019-04-13T00:51:32.507Z,13.62
2019-04-13T00:54:02.888Z,11.03
2019-04-13T00:56:33.318Z,11.45
2019-04-13T00:59:03.920Z,12.50
2019-04-13T01:01:34.382Z,11.48
2019-04-13T01:04:04.834Z,11.33
2019-04-13T01:06:35.283Z,14.58
2019-04-13T01:09:08.371Z,11.00
2019-04-13T01:11:38.853Z,11.12
2019-04-13T01:14:09.469Z,11.20
2019-04-13T01:16:39.828Z,12.15
2019-04-13T01:19:10.210Z,13.30
2019-04-13T01:21:40.533Z,13.18
2019-04-13T01:24:11.114Z,12.00
2019-04-13T01:26:41.592Z,12.53
2019-04-13T01:29:12.213Z,11.85
2019-04-13T01:31:42.523Z,11.65
2019-04-13T01:34:12.863Z,11.57
2019-04-13T01:36:43.183Z,12.28
2019-04-13T01:39:13.563Z,13.55
2019-04-13T01:41:43.978Z,10.93
2019-04-13T01:44:14.357Z,10.72
2019-04-13T01:46:44.956Z,11.53
2019-04-13T01:49:15.349Z,11.97
2019-04-13T01:51:47.336Z,10.85
2019-04-13T01:54:18.011Z,12.33
2019-04-13T01:56:48.909Z,11.22
2019-04-13T01:59:19.299Z,10.82
2019-04-13T02:02:14.606Z,8.83
2019-04-13T02:05:00.011Z,9.98
2019-04-13T02:07:41.479Z,8.85
2019-04-13T02:10:16.671Z,10.13
2019-04-13T02:12:47.196Z,9.00
2019-04-13T02:15:17.583Z,9.88
2019-04-13T02:17:48.019Z,9.23
2019-04-13T02:20:20.355Z,10.85
2019-04-13T02:22:51.791Z,9.60
2019-04-13T02:25:23.244Z,10.28
2019-04-13T02:27:53.572Z,9.20
2019-04-13T02:30:23.920Z,10.13
2019-04-13T02:32:54.372Z,9.05
2019-04-13T02:35:35.087Z,10.08
2019-04-13T02:37:56.791Z,9.60
2019-04-13T02:40:27.161Z,9.25
2019-04-13T02:42:57.679Z,9.95
2019-04-13T02:45:28.103Z,9.70
2019-04-13T02:47:58.545Z,10.10
2019-04-13T02:50:28.999Z,9.93
2019-04-13T02:52:59.631Z,10.03
2019-04-13T02:55:30.040Z,9.93
2019-04-13T02:58:00.448Z,9.38
2019-04-13T03:00:31.005Z,8.15
2019-04-13T03:03:03.125Z,10.95
2019-04-13T03:05:46.125Z,9.50
2019-04-13T03:08:05.883Z,9.50
2019-04-13T03:10:36.912Z,9.20
2019-04-13T03:13:07.510Z,10.43
2019-04-13T03:15:51.144Z,10.45
2019-04-13T03:18:26.379Z,9.50
2019-04-13T03:20:56.919Z,10.70
2019-04-13T03:23:27.859Z,9.73
2019-04-13T03:25:58.286Z,11.10
2019-04-13T03:28:28.727Z,10.15
2019-04-13T03:30:59.644Z,9.25
2019-04-13T03:33:30.659Z,10.65
2019-04-13T03:36:01.511Z,9.95
2019-04-13T03:38:31.873Z,10.20
2019-04-13T03:41:02.287Z,10.30
2019-04-13T03:43:33.214Z,9.43
2019-04-13T03:46:05.111Z,9.48
2019-04-13T03:48:36.491Z,9.90
2019-04-13T03:51:06.898Z,10.08
2019-04-13T03:53:39.075Z,11.43
2019-04-13T03:56:09.467Z,11.22
2019-04-13T03:58:39.891Z,10.40
2019-04-13T04:01:10.247Z,10.78
2019-04-13T04:03:40.587Z,9.53
2019-04-13T04:06:12.091Z,9.83
2019-04-13T04:08:42.703Z,10.10
2019-04-13T04:11:13.183Z,9.60
2019-04-13T04:13:43.551Z,10.13
2019-04-13T04:16:14.075Z,12.93
2019-04-13T04:18:44.823Z,10.20
2019-04-13T04:21:15.271Z,10.00
2019-04-13T04:23:45.711Z,9.85
2019-04-13T04:26:17.643Z,9.15
2019-04-13T04:28:48.439Z,9.95
2019-04-13T04:31:19.151Z,10.65
2019-04-13T04:33:50.326Z,9.70
2019-04-13T04:36:23.884Z,9.30
2019-04-13T04:38:53.663Z,9.53
2019-04-13T04:41:25.826Z,9.05
2019-04-13T04:43:56.202Z,10.38
2019-04-13T04:46:27.719Z,9.88
2019-04-13T04:48:58.138Z,9.33
2019-04-13T04:51:28.690Z,10.82
2019-04-13T04:53:59.587Z,9.35
2019-04-13T04:56:31.731Z,10.35
2019-04-13T04:59:02.067Z,9.90
2019-04-13T05:01:32.395Z,9.25
2019-04-13T05:04:02.727Z,10.23
2019-04-13T05:06:35.620Z,10.32
2019-04-13T05:09:06.829Z,9.65
2019-04-13T05:11:37.219Z,9.38
2019-04-13T05:14:07.678Z,8.90
2019-04-13T05:16:38.047Z,10.60
2019-04-13T05:19:08.816Z,9.23
2019-04-13T05:21:39.367Z,11.18
2019-04-13T05:24:10.026Z,9.18
2019-04-13T05:26:40.670Z,9.20
2019-04-13T05:29:11.080Z,8.93
2019-04-13T05:31:41.466Z,23.22
2019-04-13T05:34:14.654Z,19.73
2019-04-13T05:36:47.755Z,12.20
2019-04-13T05:39:17.143Z,10.13
2019-04-13T05:41:47.609Z,9.08
2019-04-13T05:44:17.951Z,9.98
2019-04-13T05:46:48.781Z,10.63
2019-04-13T05:49:19.179Z,9.18
2019-04-13T05:51:49.513Z,9.10
2019-04-13T05:54:19.850Z,8.93
2019-04-13T05:56:50.908Z,9.43
2019-04-13T05:59:22.281Z,9.68
2019-04-13T06:01:53.866Z,11.60
2019-04-13T06:04:24.193Z,8.30
2019-04-13T06:06:59.887Z,8.78
2019-04-13T06:09:27.071Z,9.25
2019-04-13T06:11:57.552Z,9.25
2019-04-13T06:14:30.096Z,12.90
2019-04-13T06:17:01.759Z,7.85
2019-04-13T06:19:34.240Z,8.85
2019-04-13T06:22:04.155Z,10.05
2019-04-13T06:24:34.490Z,8.33
2019-04-13T06:27:04.935Z,7.87
2019-04-13T06:29:35.571Z,7.72
2019-04-13T06:32:18.022Z,7.83
2019-04-13T06:35:06.084Z,7.80
2019-04-13T06:37:36.375Z,7.55
2019-04-13T06:40:08.370Z,8.60
2019-04-13T06:42:39.288Z,6.87
2019-04-13T06:45:13.085Z,7.58
2019-04-13T06:47:41.823Z,7.15
2019-04-13T06:50:12.210Z,6.70
2019-04-13T06:52:45.133Z,6.42
2019-04-13T06:55:16.345Z,6.53
2019-04-13T06:57:50.833Z,6.90
2019-04-13T07:00:21.411Z,6.00
2019-04-13T07:02:51.788Z,7.25
2019-04-13T07:05:22.243Z,6.05
2019-04-13T07:08:37.812Z,6.70
2019-04-13T07:11:09.152Z,7.35
2019-04-13T07:13:47.883Z,6.33
2019-04-13T07:16:25.132Z,6.35
2019-04-13T07:18:55.639Z,6.72
2019-04-13T07:21:25.967Z,6.50
2019-04-13T07:23:58.106Z,6.70
2019-04-13T07:26:28.511Z,6.10
2019-04-13T07:28:58.999Z,5.92
2019-04-13T07:31:31.395Z,5.97
2019-04-13T07:34:01.359Z,7.28
2019-04-13T07:36:31.732Z,6.08
2019-04-13T07:39:02.485Z,5.40
2019-04-13T07:41:34.463Z,4.53
2019-04-13T07:44:14.934Z,5.65
2019-04-13T07:46:54.495Z,5.00
2019-04-13T07:49:33.850Z,4.33
2019-04-13T07:52:28.831Z,3.95
2019-04-13T07:54:58.517Z,4.97
2019-04-13T07:57:28.872Z,4.70
2019-04-13T08:00:00.063Z,3.98
2019-04-13T08:02:31.127Z,3.77
2019-04-13T08:05:01.553Z,3.72
2019-04-13T08:07:48.836Z,4.20
2019-04-13T08:10:09.714Z,3.98
2019-04-13T08:12:40.216Z,3.90
2019-04-13T08:15:10.734Z,3.87
2019-04-13T08:17:41.198Z,3.45
2019-04-13T08:20:29.517Z,3.40
2019-04-13T08:22:59.767Z,3.05
2019-04-13T08:25:31.085Z,3.33
2019-04-13T08:28:01.491Z,3.30
2019-04-13T08:30:35.791Z,4.40
2019-04-13T08:33:05.498Z,3.37
2019-04-13T08:35:35.932Z,4.00
2019-04-13T08:38:13.243Z,3.62
2019-04-13T08:40:38.519Z,3.98
2019-04-13T08:43:08.899Z,4.40
2019-04-13T08:45:43.742Z,3.95
2019-04-13T08:48:11.499Z,4.25
2019-04-13T08:50:41.918Z,4.67
2019-04-13T08:53:12.223Z,3.80
2019-04-13T08:55:43.614Z,3.58
2019-04-13T08:58:14.149Z,3.67
2019-04-13T09:00:44.708Z,4.30
2019-04-13T09:03:17.270Z,4.58
2019-04-13T09:05:49.229Z,4.42
2019-04-13T09:08:28.710Z,5.35
2019-04-13T09:10:53.643Z,5.05
2019-04-13T09:13:30.158Z,5.20
2019-04-13T09:15:59.943Z,5.20
2019-04-13T09:18:51.735Z,4.75
2019-04-13T09:21:50.032Z,5.33
2019-04-13T09:24:19.471Z,5.05
2019-04-13T09:26:51.074Z,4.42
2019-04-13T09:29:23.756Z,5.45
2019-04-13T09:31:59.264Z,4.65
2019-04-13T09:34:31.687Z,3.87
2019-04-13T09:37:00.385Z,4.50
2019-04-13T09:39:32.435Z,4.90
2019-04-13T09:42:02.848Z,4.53
2019-04-13T09:44:33.255Z,5.80
2019-04-13T09:47:13.952Z,5.00
2019-04-13T09:49:49.643Z,4.87
2019-04-13T09:52:22.120Z,5.22
2019-04-13T09:54:53.376Z,5.25
2019-04-13T09:57:23.687Z,4.83
2019-04-13T09:59:57.327Z,4.90
2019-04-13T10:02:28.687Z,5.58
2019-04-13T10:04:59.542Z,4.90
2019-04-13T10:07:31.475Z,4.58
2019-04-13T10:10:01.844Z,4.78
2019-04-13T10:12:50.423Z,4.70
2019-04-13T10:15:52.895Z,5.12
2019-04-13T10:18:29.552Z,4.60
2019-04-13T10:21:00.455Z,4.95
2019-04-13T10:23:30.862Z,5.30
2019-04-13T10:26:01.414Z,4.37
2019-04-13T10:28:38.075Z,4.15
2019-04-13T10:31:10.133Z,3.90
2019-04-13T10:33:40.851Z,4.10
2019-04-13T10:36:12.150Z,4.55
2019-04-13T10:38:42.660Z,5.05
2019-04-13T10:41:13.220Z,4.15
2019-04-13T10:43:43.660Z,4.97
2019-04-13T10:46:33.138Z,4.78
2019-04-13T10:49:24.310Z,4.75
2019-04-13T10:51:58.971Z,5.78
2019-04-13T10:54:29.886Z,5.45
2019-04-13T10:57:06.107Z,5.90
2019-04-13T10:59:36.503Z,5.55
2019-04-13T11:02:07.011Z,5.35
2019-04-13T11:04:43.610Z,4.50
2019-04-13T11:07:14.049Z,5.42
2019-04-13T11:09:45.853Z,3.40
2019-04-13T11:12:17.328Z,2.70
2019-04-13T11:14:48.407Z,2.83
2019-04-13T11:17:18.899Z,2.77
2019-04-13T11:20:04.459Z,3.27
2019-04-13T11:22:35.087Z,3.33
2019-04-13T11:25:06.144Z,2.47
2019-04-13T11:27:37.007Z,2.83
2019-04-13T11:30:08.448Z,3.15
2019-04-13T11:32:38.959Z,2.90
2019-04-13T11:35:09.560Z,3.12
2019-04-13T11:37:39.959Z,2.52
2019-04-13T11:40:13.702Z,2.70
2019-04-13T11:43:00.268Z,2.50
2019-04-13T11:45:49.043Z,2.65
2019-04-13T11:48:37.896Z,2.25
2019-04-13T11:51:31.866Z,2.70
2019-04-13T11:54:03.801Z,2.55
2019-04-13T11:56:36.572Z,2.50
2019-04-13T11:59:06.756Z,2.72
2019-04-13T12:02:03.125Z,3.05
2019-04-13T12:05:05.552Z,2.95
2019-04-13T12:07:50.861Z,2.72
2019-04-13T12:10:46.180Z,2.83
2019-04-13T12:13:23.803Z,2.83
2019-04-13T12:16:17.741Z,3.65
2019-04-13T12:19:10.119Z,2.70
2019-04-13T12:22:02.687Z,2.30
2019-04-13T12:24:33.895Z,2.27
2019-04-13T12:27:04.531Z,2.05
2019-04-13T12:29:38.481Z,2.40
2019-04-13T12:32:13.259Z,4.08
2019-04-13T12:34:44.722Z,3.37
2019-04-13T12:37:15.186Z,2.85
2019-04-13T12:39:47.356Z,3.12
2019-04-13T12:42:17.883Z,3.50
2019-04-13T12:44:50.196Z,3.22
2019-04-13T12:47:21.818Z,3.35
2019-04-13T12:49:52.207Z,3.70
2019-04-13T12:52:22.602Z,3.08
2019-04-13T12:54:53.081Z,3.33
2019-04-13T12:57:23.491Z,4.78
2019-04-13T12:59:53.887Z,4.05
2019-04-13T13:02:41.863Z,4.15
2019-04-13T13:05:20.438Z,3.70
2019-04-13T13:07:50.904Z,4.35
2019-04-13T13:10:24.359Z,3.52
2019-04-13T13:12:54.183Z,6.30
2019-04-13T13:15:24.567Z,4.58
2019-04-13T13:17:55.246Z,3.50
2019-04-13T13:20:25.774Z,3.50
2019-04-13T13:22:57.232Z,4.05
2019-04-13T13:25:27.831Z,3.50
2019-04-13T13:27:58.475Z,3.02
2019-04-13T13:30:28.882Z,2.90
2019-04-13T13:32:59.338Z,2.90
2019-04-13T13:35:32.481Z,3.35
2019-04-13T13:38:04.578Z,2.92
2019-04-13T13:40:34.215Z,3.15
2019-04-13T13:43:04.874Z,2.83
2019-04-13T13:45:35.247Z,2.80
2019-04-13T13:48:05.775Z,3.25
2019-04-13T13:50:37.081Z,4.28
2019-04-13T13:53:10.278Z,3.35
2019-04-13T13:55:39.812Z,3.37
2019-04-13T13:58:16.755Z,3.33
2019-04-13T14:00:58.136Z,4.05
2019-04-13T14:03:28.644Z,4.08
2019-04-13T14:05:59.039Z,3.70
2019-04-13T14:08:29.863Z,3.27
2019-04-13T14:11:00.150Z,4.50
2019-04-13T14:13:31.115Z,3.67
2019-04-13T14:16:01.413Z,2.52
2019-04-13T14:18:32.141Z,2.67
2019-04-13T14:21:04.345Z,3.05
2019-04-13T14:23:34.645Z,2.08
2019-04-13T14:26:04.991Z,2.30
2019-04-13T14:28:35.832Z,2.27
2019-04-13T14:31:06.937Z,3.60
2019-04-13T14:33:37.375Z,2.12
2019-04-13T14:36:07.691Z,2.75
2019-04-13T14:38:38.358Z,3.17
2019-04-13T14:41:09.877Z,2.87
2019-04-13T14:43:41.588Z,2.98
2019-04-13T14:46:12.203Z,3.30
2019-04-13T14:48:42.919Z,3.85
2019-04-13T14:51:13.242Z,4.00
2019-04-13T14:53:46.207Z,3.77
2019-04-13T14:56:18.272Z,4.77
2019-04-13T14:58:47.816Z,3.83
2019-04-13T15:01:18.163Z,3.37
2019-04-13T15:03:48.879Z,3.40
2019-04-13T15:06:21.263Z,3.15
2019-04-13T15:08:52.380Z,4.70
2019-04-13T15:11:22.947Z,6.35
2019-04-13T15:13:53.879Z,3.42
2019-04-13T15:16:26.283Z,3.77
2019-04-13T15:19:23.681Z,3.05
2019-04-13T15:21:42.422Z,3.10
2019-04-13T15:24:16.342Z,3.58
2019-04-13T15:27:08.500Z,3.10
